Time;durP1;ratioP1;P1;durP2;ratioP2;P2;SDS_P1;SDS_P2;PMS_P1;PMS_P2;Temp;Humidity;BMP_temperature;BMP_pressure;BME280_temperature;BME280_humidity;BME280_pressure;Samples;Min_cycle;Max_cycle;Signal;HPM_P1;HPM_P2
2021/11/17 02:28:16;;;;;;;31.40;19.85;;;;;;;6.63;94.41;101906.22;4924807;29;20162;-51
2021/11/17 02:31:11;;;;;;;32.33;19.70;;;;;;;6.64;94.92;101907.91;4935159;29;20074;-50
2021/11/17 02:34:05;;;;;;;37.17;22.67;;;;;;;6.65;94.87;101903.31;4934773;29;20055;-50
2021/11/17 02:36:37;;;;;;;32.70;20.17;;;;;;;6.64;94.02;101910.63;4996333;28;20493;-51
2021/11/17 02:39:08;;;;;;;33.25;21.17;;;;;;;6.66;94.55;101899.56;4995032;28;20117;-51
2021/11/17 02:42:05;;;;;;;37.75;23.60;;;;;;;6.67;94.31;101898.53;4995465;28;20054;-52
2021/11/17 02:45:08;;;;;;;32.22;20.88;;;;;;;6.68;94.64;101909.13;4982967;28;20038;-49
2021/11/17 02:47:49;;;;;;;29.88;19.13;;;;;;;6.70;94.83;101898.91;4995617;28;20125;-50
2021/11/17 02:50:49;;;;;;;31.02;19.85;;;;;;;6.72;95.03;101894.09;4994684;28;20109;-48
2021/11/17 02:53:47;;;;;;;31.67;19.33;;;;;;;6.72;95.63;101893.28;4984406;28;20050;-48
2021/11/17 02:56:35;;;;;;;31.38;19.45;;;;;;;6.71;94.56;101891.59;4996077;28;20046;-52
2021/11/17 02:59:13;;;;;;;36.83;22.17;;;;;;;6.71;95.08;101899.72;4992270;28;20053;-51
2021/11/17 03:01:53;;;;;;;27.92;17.50;;;;;;;6.76;95.22;101908.06;4995556;28;20030;-51
2021/11/17 03:04:45;;;;;;;34.22;21.40;;;;;;;6.73;94.95;101905.78;4993221;28;20120;-49
2021/11/17 03:07:31;;;;;;;38.97;23.58;;;;;;;6.67;93.84;101923.72;4995201;28;20555;-50
2021/11/17 03:10:21;;;;;;;30.10;19.13;;;;;;;6.67;94.20;101915.59;4991792;28;20061;-52
2021/11/17 03:13:15;;;;;;;39.28;24.10;;;;;;;6.66;93.50;101916.63;4994897;28;20053;-51
2021/11/17 03:15:58;;;;;;;37.08;22.73;;;;;;;6.67;94.41;101912.06;4993978;28;20500;-52
2021/11/17 03:18:44;;;;;;;33.60;20.95;;;;;;;6.68;94.20;101905.59;4993667;28;20489;-52
2021/11/17 03:21:37;;;;;;;34.88;21.30;;;;;;;6.70;93.77;101900.78;4994326;28;20481;-49
2021/11/17 03:24:26;;;;;;;30.60;19.02;;;;;;;6.70;94.11;101900.78;4994426;28;20042;-52
2021/11/17 03:27:07;;;;;;;28.98;18.17;;;;;;;6.71;94.05;101895.16;4995045;28;20046;-51
2021/11/17 03:29:59;;;;;;;31.55;19.17;;;;;;;6.72;95.01;101904.94;4996247;28;20074;-52
2021/11/17 03:32:42;;;;;;;36.97;23.13;;;;;;;6.73;94.46;101912.00;4995395;28;20046;-52
2021/11/17 03:35:20;;;;;;;36.47;21.02;;;;;;;6.69;94.00;101905.38;4993584;28;20457;-53
2021/11/17 03:38:07;;;;;;;38.10;22.33;;;;;;;6.68;93.53;101914.53;4995122;28;20046;-50
2021/11/17 03:41:05;;;;;;;30.67;19.02;;;;;;;6.70;94.39;101909.75;4994298;28;20516;-51
2021/11/17 03:43:57;;;;;;;32.40;19.80;;;;;;;6.70;94.20;101900.78;4994195;28;20106;-52
2021/11/17 03:46:37;;;;;;;29.88;18.10;;;;;;;6.71;94.51;101897.88;4993964;28;20102;-51
2021/11/17 03:49:21;;;;;;;30.20;18.80;;;;;;;6.73;94.83;101893.06;4994155;28;20069;-51
2021/11/17 03:52:24;;;;;;;35.65;22.42;;;;;;;6.71;93.29;101902.44;4994172;28;20073;-50
2021/11/17 03:55:17;;;;;;;28.98;16.75;;;;;;;6.74;94.82;101896.63;4993750;28;20528;-49
2021/11/17 03:58:00;;;;;;;31.58;17.55;;;;;;;6.74;94.71;101900.16;4994293;28;20042;-50
2021/11/17 04:00:58;;;;;;;29.70;17.80;;;;;;;6.73;94.46;101890.34;4993338;28;20081;-49
2021/11/17 04:03:45;;;;;;;30.20;17.92;;;;;;;6.74;94.55;101883.91;4980358;28;20086;-51
2021/11/17 04:06:23;;;;;;;25.42;16.30;;;;;;;6.75;95.29;101888.25;4993218;28;20054;-52
2021/11/17 04:09:09;;;;;;;29.65;18.08;;;;;;;6.75;94.58;101893.66;4994770;28;20046;-50
2021/11/17 04:11:53;;;;;;;36.20;20.90;;;;;;;6.74;94.33;101897.44;4992927;28;20116;-50
2021/11/17 04:14:24;;;;;;;38.75;21.90;;;;;;;6.70;93.54;101900.78;4993363;28;20066;-52
2021/11/17 04:17:27;;;;;;;33.63;19.92;;;;;;;6.74;94.82;101897.44;4993171;28;20046;-51
2021/11/17 04:20:01;;;;;;;31.67;19.17;;;;;;;6.75;94.92;101904.50;4994504;28;20054;-52
2021/11/17 04:22:48;;;;;;;36.10;21.58;;;;;;;6.76;94.56;101905.38;4993170;28;20073;-50
2021/11/17 04:25:41;;;;;;;29.80;18.45;;;;;;;6.78;94.23;101904.09;4993023;28;20042;-52
2021/11/17 04:28:28;;;;;;;30.67;18.17;;;;;;;6.77;93.76;101907.00;4993173;28;20080;-52
2021/11/17 04:31:14;;;;;;;33.75;20.75;;;;;;;6.75;93.72;101909.09;5002487;28;20457;-51
2021/11/17 04:33:55;;;;;;;29.13;17.77;;;;;;;6.77;94.00;101904.31;4992688;28;20046;-51
2021/11/17 04:36:29;;;;;;;34.65;20.05;;;;;;;6.76;94.25;101906.19;4993005;28;20139;-50
2021/11/17 04:39:39;;;;;;;36.53;22.75;;;;;;;6.75;93.63;101903.69;4993077;28;20073;-50
2021/11/17 04:42:13;;;;;;;30.48;18.00;;;;;;;6.76;94.64;101906.19;4992655;28;20559;-50
2021/11/17 04:44:50;;;;;;;28.40;17.52;;;;;;;6.77;94.12;101907.00;4992676;28;20516;-51
2021/11/17 04:47:38;;;;;;;31.33;17.48;;;;;;;6.79;94.26;101903.03;4992470;28;20382;-52
2021/11/17 04:50:34;;;;;;;30.75;17.45;;;;;;;6.80;94.84;101896.56;4994177;28;20046;-51
2021/11/17 04:53:15;;;;;;;27.25;17.15;;;;;;;6.81;94.58;101887.41;4981898;28;20054;-48
2021/11/17 04:55:49;;;;;;;32.67;18.38;;;;;;;6.81;94.73;101881.16;4992355;28;20050;-51
2021/11/17 04:58:49;;;;;;;27.50;16.63;;;;;;;6.81;95.16;101870.31;4992973;28;20054;-50
2021/11/17 05:01:20;;;;;;;23.63;14.98;;;;;;;6.85;95.80;101870.72;4995200;28;20110;-52
2021/11/17 05:04:06;;;;;;;26.13;14.90;;;;;;;6.88;96.85;101857.56;4992340;28;20038;-48
2021/11/17 05:06:43;;;;;;;25.17;15.13;;;;;;;6.90;96.46;101850.03;4992534;28;20077;-52
2021/11/17 05:09:45;;;;;;;28.60;16.83;;;;;;;6.91;97.71;101853.59;4992685;28;20043;-52
2021/11/17 05:12:35;;;;;;;31.73;18.08;;;;;;;6.86;96.91;101848.00;4981258;28;20137;-52
2021/11/17 05:15:27;;;;;;;32.35;19.17;;;;;;;6.85;96.06;101840.91;4991881;28;20056;-52
2021/11/17 05:17:55;;;;;;;31.27;17.50;;;;;;;6.81;95.39;101848.66;4992649;28;20054;-49
2021/11/17 05:20:29;;;;;;;36.80;22.55;;;;;;;6.80;95.49;101857.81;4993660;28;20053;-52
2021/11/17 05:22:57;;;;;;;34.25;20.50;;;;;;;6.79;95.39;101870.53;4992894;28;20043;-53
2021/11/17 05:25:50;;;;;;;34.75;20.80;;;;;;;6.79;95.18;101862.41;4992358;28;20038;-50
2021/11/17 05:28:42;;;;;;;32.50;19.27;;;;;;;6.78;95.04;101859.91;4950817;29;20105;-50
2021/11/17 05:31:16;;;;;;;33.30;16.95;;;;;;;6.79;95.93;101861.56;4952464;28;20047;-50
2021/11/17 05:33:59;;;;;;;33.20;19.25;;;;;;;6.79;95.65;101856.16;4950001;29;20051;-50
2021/11/17 05:36:50;;;;;;;32.78;19.08;;;;;;;6.79;95.17;101857.00;4951471;29;20043;-52
2021/11/17 05:39:31;;;;;;;28.73;17.48;;;;;;;6.80;95.78;101852.41;4952559;28;20056;-51
2021/11/17 05:42:07;;;;;;;28.70;16.77;;;;;;;6.80;95.41;101850.50;4951306;28;20051;-51
2021/11/17 05:44:58;;;;;;;28.58;17.63;;;;;;;6.79;95.54;101851.56;4953225;29;20047;-52
2021/11/17 05:47:51;;;;;;;31.08;17.27;;;;;;;6.80;95.76;101844.28;4939293;29;20055;-52
2021/11/17 05:50:32;;;;;;;29.20;17.75;;;;;;;6.81;96.70;101856.78;4956031;28;20117;-51
2021/11/17 05:53:18;;;;;;;31.23;18.83;;;;;;;6.81;95.99;101859.50;4955057;29;20618;-52
2021/11/17 05:55:58;;;;;;;28.27;16.80;;;;;;;6.79;96.51;101843.44;4953399;29;20074;-52
2021/11/17 05:59:00;;;;;;;30.17;17.63;;;;;;;6.78;95.72;101844.50;4954612;28;20051;-52
2021/11/17 06:02:11;;;;;;;28.13;17.05;;;;;;;6.77;96.09;101847.41;4943533;29;20047;-50
2021/11/17 06:04:39;;;;;;;28.17;17.40;;;;;;;6.80;96.50;101844.28;4944182;28;20051;-51
2021/11/17 06:07:06;;;;;;;26.92;16.77;;;;;;;6.80;96.07;101853.22;4969889;28;20505;-48
2021/11/17 06:09:34;;;;;;;32.45;18.77;;;;;;;6.80;96.23;101864.06;4973584;28;20540;-51
2021/11/17 06:12:07;;;;;;;33.78;19.98;;;;;;;6.79;96.03;101862.41;4957685;28;20908;-52
2021/11/17 06:14:44;;;;;;;31.42;18.70;;;;;;;6.79;96.06;101864.28;4973870;28;20541;-49
2021/11/17 06:17:18;;;;;;;29.58;17.55;;;;;;;6.79;95.76;101867.81;4973527;28;20047;-52
2021/11/17 06:19:48;;;;;;;29.02;18.17;;;;;;;6.81;96.24;101871.16;4960817;28;20050;-52
2021/11/17 06:22:19;;;;;;;27.10;16.73;;;;;;;6.83;96.37;101865.50;4974039;28;20055;-52
2021/11/17 06:24:49;;;;;;;29.35;18.13;;;;;;;6.81;96.06;101865.72;4973598;28;20444;-51
2021/11/17 06:27:20;;;;;;;32.80;19.77;;;;;;;6.85;96.11;101870.72;4970150;28;20040;-51
2021/11/17 06:29:54;;;;;;;27.77;17.52;;;;;;;6.85;95.91;101866.09;4967671;28;20051;-52
2021/11/17 06:32:22;;;;;;;29.77;18.35;;;;;;;6.87;96.13;101871.31;4973776;28;20047;-48
2021/11/17 06:34:53;;;;;;;31.45;18.38;;;;;;;6.86;96.23;101878.63;4973761;28;20094;-50
2021/11/17 06:37:24;;;;;;;31.67;19.25;;;;;;;6.86;96.64;101883.22;4973504;28;20042;-52
2021/11/17 06:39:54;;;;;;;27.20;16.95;;;;;;;6.89;97.41;101889.03;4964445;28;20038;-51
2021/11/17 06:42:27;;;;;;;22.80;14.00;;;;;;;6.94;98.46;101877.53;4989669;28;20513;-48
2021/11/17 06:44:56;;;;;;;28.67;17.48;;;;;;;6.98;98.09;101886.91;4995296;28;20042;-52
2021/11/17 06:47:24;;;;;;;27.30;15.85;;;;;;;7.01;98.04;101884.56;4994682;28;20084;-50
2021/11/17 06:49:53;;;;;;;26.92;16.42;;;;;;;7.01;98.78;101891.88;4994995;28;20405;-51
2021/11/17 06:52:22;;;;;;;24.13;14.90;;;;;;;7.05;99.60;101887.69;5007310;28;20057;-51
2021/11/17 06:54:51;;;;;;;27.42;16.10;;;;;;;7.11;99.98;101896.81;4994109;28;20074;-51
2021/11/17 06:57:20;;;;;;;27.42;15.52;;;;;;;7.09;99.63;101899.72;4994116;28;20039;-52
2021/11/17 06:59:48;;;;;;;33.60;20.17;;;;;;;7.04;98.76;101905.81;4994505;28;20397;-51
2021/11/17 07:02:16;;;;;;;27.00;17.15;;;;;;;7.07;100.00;101895.59;4312782;28;10000467;-51
2021/11/17 07:04:44;;;;;;;26.58;15.40;;;;;;;7.06;99.43;101892.03;4995080;28;20038;-52
2021/11/17 07:07:16;;;;;;;39.00;23.77;;;;;;;7.02;98.12;101907.06;4992481;28;20625;-52
2021/11/17 07:09:45;;;;;;;36.60;21.48;;;;;;;7.01;98.02;101908.13;4991921;28;20505;-52
2021/11/17 07:12:13;;;;;;;24.67;14.85;;;;;;;7.08;100.00;101914.34;4993406;28;20035;-53
2021/11/17 07:14:42;;;;;;;25.85;15.65;;;;;;;7.19;100.00;101900.09;4991117;28;20520;-51
2021/11/17 07:17:10;;;;;;;34.38;20.65;;;;;;;7.16;100.00;101911.34;4991580;28;20494;-51
2021/11/17 07:19:38;;;;;;;26.95;15.48;;;;;;;7.09;99.43;101910.56;4992409;28;20117;-48
2021/11/17 07:22:07;;;;;;;36.80;22.45;;;;;;;7.06;99.15;101911.00;4991868;28;20168;-52
2021/11/17 07:24:36;;;;;;;31.02;20.20;;;;;;;7.06;99.18;101908.31;4981813;28;20071;-51
2021/11/17 07:27:04;;;;;;;31.52;19.63;;;;;;;7.09;99.31;101924.13;4990292;28;20046;-54
2021/11/17 07:29:33;;;;;;;38.47;23.98;;;;;;;7.06;98.47;101919.16;4992114;28;20066;-51
2021/11/17 07:32:00;;;;;;;26.85;15.35;;;;;;;7.09;99.95;101926.81;4992516;28;20489;-51
2021/11/17 07:34:28;;;;;;;22.40;12.90;;;;;;;7.15;100.00;101928.69;4991726;28;20539;-52
2021/11/17 07:36:56;;;;;;;24.58;14.57;;;;;;;7.13;100.00;101933.50;4990924;28;20038;-49
2021/11/17 07:39:24;;;;;;;24.02;14.63;;;;;;;7.17;100.00;101929.31;4991724;28;20528;-51
2021/11/17 07:41:53;;;;;;;28.70;18.38;;;;;;;7.12;99.61;101922.84;4992190;28;20034;-52
2021/11/17 07:44:23;;;;;;;33.17;21.02;;;;;;;7.12;99.79;101928.28;4991800;28;20395;-49
2021/11/17 07:46:53;;;;;;;25.00;14.57;;;;;;;7.19;100.00;101927.22;4991043;28;20050;-51
2021/11/17 07:49:22;;;;;;;31.00;19.77;;;;;;;7.19;100.00;101921.78;4981545;28;20035;-51
2021/11/17 07:51:50;;;;;;;23.73;14.85;;;;;;;7.22;100.00;101921.34;4992419;28;20397;-51
2021/11/17 07:54:19;;;;;;;26.10;17.25;;;;;;;7.29;100.00;101909.59;4989692;28;20417;-51
2021/11/17 07:56:48;;;;;;;21.85;12.65;;;;;;;7.39;100.00;101904.56;4990518;28;20050;-51
2021/11/17 07:59:20;;;;;;;35.92;22.80;;;;;;;7.39;100.00;101907.25;4991125;28;20130;-51
2021/11/17 08:01:50;;;;;;;38.03;22.98;;;;;;;7.22;100.00;101896.94;4990157;28;20137;-50
2021/11/17 08:04:20;;;;;;;35.75;22.80;;;;;;;7.14;100.00;101901.78;4983959;28;20058;-51
2021/11/17 08:06:48;;;;;;;23.30;12.55;;;;;;;7.36;100.00;101916.66;4988462;28;20058;-52
2021/11/17 08:09:17;;;;;;;37.28;22.85;;;;;;;7.27;100.00;101934.25;4990706;28;20524;-52
2021/11/17 08:11:45;;;;;;;31.70;19.45;;;;;;;7.21;100.00;101935.94;4989793;28;20093;-48
2021/11/17 08:14:13;;;;;;;31.92;18.52;;;;;;;7.22;100.00;101947.63;4991461;28;20053;-51
2021/11/17 08:16:41;;;;;;;36.28;21.00;;;;;;;7.20;100.00;101949.72;4991053;28;20464;-51
2021/11/17 08:19:09;;;;;;;37.38;20.83;;;;;;;7.19;100.00;101951.59;4992959;28;20046;-50
2021/11/17 08:21:37;;;;;;;33.42;21.83;;;;;;;7.17;100.00;101950.97;4992921;28;20501;-53
2021/11/17 08:24:05;;;;;;;34.13;21.88;;;;;;;7.17;100.00;101950.97;4990397;28;20042;-52
2021/11/17 08:26:33;;;;;;;38.78;23.20;;;;;;;7.18;100.00;101952.63;4992194;28;20528;-55
2021/11/17 08:29:01;;;;;;;35.95;22.23;;;;;;;7.18;100.00;101949.91;4992767;28;20108;-51
2021/11/17 08:31:29;;;;;;;32.80;20.35;;;;;;;7.19;100.00;101954.31;4992921;28;20109;-50
2021/11/17 08:33:57;;;;;;;29.70;17.42;;;;;;;7.22;100.00;101950.34;4993386;28;20121;-52
2021/11/17 08:36:25;;;;;;;30.48;18.20;;;;;;;7.31;100.00;101948.19;4999523;28;20173;-52
2021/11/17 08:38:54;;;;;;;20.00;11.25;;;;;;;7.52;100.00;101949.72;4992253;28;20094;-52
2021/11/17 08:41:25;;;;;;;33.08;20.23;;;;;;;7.73;100.00;101948.50;4992798;28;20039;-51
2021/11/17 08:43:53;;;;;;;44.00;24.70;;;;;;;7.66;100.00;101952.09;4992890;28;20508;-51
2021/11/17 08:46:21;;;;;;;44.65;23.92;;;;;;;7.52;100.00;101957.84;4993422;28;20977;-52
2021/11/17 08:48:51;;;;;;;41.13;24.77;;;;;;;7.53;100.00;101962.22;4992436;28;20038;-52
2021/11/17 08:51:20;;;;;;;28.13;16.10;;;;;;;7.49;100.00;101952.88;4992238;28;20054;-51
2021/11/17 08:53:49;;;;;;;41.35;22.95;;;;;;;7.51;100.00;101953.47;4991584;28;20452;-48
2021/11/17 08:56:16;;;;;;;31.48;17.05;;;;;;;7.55;100.00;101960.97;4993104;28;20069;-52
2021/11/17 08:58:46;;;;;;;39.88;23.52;;;;;;;7.49;100.00;101967.25;4992449;28;20367;-51
2021/11/17 09:01:14;;;;;;;44.70;24.33;;;;;;;7.47;100.00;101953.06;4992479;28;20047;-52
2021/11/17 09:03:43;;;;;;;41.97;24.58;;;;;;;7.47;100.00;101950.38;4992363;28;20129;-52
2021/11/17 09:06:12;;;;;;;52.03;27.73;;;;;;;7.42;100.00;101961.88;4992967;28;20065;-51
2021/11/17 09:08:41;;;;;;;36.95;21.65;;;;;;;7.41;100.00;101962.09;4997142;28;20040;-52
2021/11/17 09:11:12;;;;;;;45.90;25.05;;;;;;;7.41;100.00;101971.06;4998385;28;20113;-52
2021/11/17 09:13:41;;;;;;;44.85;26.10;;;;;;;7.41;100.00;101972.94;4992703;28;20034;-48
2021/11/17 09:16:09;;;;;;;40.25;23.67;;;;;;;7.40;100.00;101965.84;4992868;28;20122;-52
2021/11/17 09:18:38;;;;;;;41.28;22.85;;;;;;;7.44;100.00;101964.38;4995581;28;20038;-51
2021/11/17 09:21:15;;;;;;;45.40;25.05;;;;;;;7.49;100.00;101971.84;4996076;28;20058;-51
2021/11/17 09:23:43;;;;;;;45.80;26.02;;;;;;;7.47;100.00;101972.06;4995580;28;20042;-51
2021/11/17 09:26:12;;;;;;;49.72;27.33;;;;;;;7.49;100.00;101975.38;4999502;28;20413;-48
2021/11/17 09:28:40;;;;;;;47.28;25.45;;;;;;;7.56;100.00;101981.59;4997862;28;20097;-52
2021/11/17 09:31:08;;;;;;;50.25;26.15;;;;;;;7.63;100.00;101981.56;4995978;28;20057;-52
2021/11/17 09:33:46;;;;;;;29.92;14.25;;;;;;;7.63;100.00;101976.97;4995514;28;20129;-52
2021/11/17 09:36:16;;;;;;;46.67;24.95;;;;;;;7.63;100.00;101976.97;4999876;28;20045;-52
2021/11/17 09:38:49;;;;;;;59.80;30.70;;;;;;;7.55;100.00;101979.94;4998958;28;20046;-51
2021/11/17 09:41:24;;;;;;;58.03;30.75;;;;;;;7.51;100.00;101988.75;4996163;28;20125;-51
2021/11/17 09:43:57;;;;;;;56.88;29.63;;;;;;;7.48;100.00;101987.28;4995477;28;20124;-48
2021/11/17 09:46:28;;;;;;;59.92;31.80;;;;;;;7.45;100.00;101990.44;4996081;28;20092;-53
2021/11/17 09:48:59;;;;;;;60.50;31.35;;;;;;;7.45;100.00;101988.53;4995996;28;20062;-52
2021/11/17 09:51:31;;;;;;;56.72;30.67;;;;;;;7.47;100.00;101991.88;4995641;28;20556;-51
2021/11/17 09:54:33;;;;;;;58.15;30.63;;;;;;;7.49;100.00;101994.38;4995531;28;20074;-51
2021/11/17 09:57:08;;;;;;;46.10;22.52;;;;;;;7.54;100.00;101994.53;4996610;28;20042;-51
2021/11/17 09:59:45;;;;;;;47.05;24.15;;;;;;;7.58;100.00;102000.38;5009061;28;20459;-52
2021/11/17 10:02:33;;;;;;;62.22;32.35;;;;;;;7.58;100.00;102003.91;4995849;28;20046;-50
2021/11/17 10:05:11;;;;;;;51.85;27.70;;;;;;;7.61;100.00;102002.63;4993863;28;20583;-51
2021/11/17 10:13:33;;;;;;;53.00;28.95;;;;;;;7.67;100.00;102005.31;4994358;28;20050;-48
2021/11/17 10:16:01;;;;;;;57.50;30.63;;;;;;;7.72;100.00;102010.09;4995294;28;20058;-48
2021/11/17 10:18:38;;;;;;;47.05;25.75;;;;;;;7.71;100.00;102005.69;4996242;28;20057;-53
2021/11/17 10:21:27;;;;;;;53.17;28.05;;;;;;;7.77;100.00;102006.69;4995103;28;20049;-53
2021/11/17 10:24:11;;;;;;;60.88;31.00;;;;;;;7.75;100.00;102011.53;4982430;28;20050;-52
2021/11/17 10:26:51;;;;;;;59.85;33.35;;;;;;;7.76;100.00;102013.19;4994891;28;20050;-52
2021/11/17 10:29:33;;;;;;;56.33;28.75;;;;;;;7.75;100.00;102006.91;4994124;28;20057;-51
2021/11/17 10:32:21;;;;;;;60.92;30.27;;;;;;;7.76;100.00;102003.16;4993726;28;20038;-51
2021/11/17 10:35:13;;;;;;;58.60;30.48;;;;;;;7.79;100.00;102007.31;4994490;28;20096;-52
2021/11/17 10:38:00;;;;;;;64.00;34.15;;;;;;;7.80;100.00;102012.53;4995004;28;20038;-52
2021/11/17 10:40:31;;;;;;;68.03;34.58;;;;;;;7.82;100.00;102009.59;4995890;28;20501;-48
2021/11/17 10:43:03;;;;;;;62.72;32.47;;;;;;;7.85;100.00;102001.00;4994424;28;20038;-50
2021/11/17 10:46:07;;;;;;;60.95;31.52;;;;;;;7.84;100.00;102000.19;4997078;28;20042;-50
2021/11/17 10:48:37;;;;;;;65.93;34.45;;;;;;;7.84;100.00;102015.59;5005390;28;20049;-48
2021/11/17 10:51:21;;;;;;;63.00;33.00;;;;;;;7.83;100.00;102014.78;4996000;28;20129;-50
2021/11/17 10:53:53;;;;;;;61.40;32.80;;;;;;;7.85;100.00;102015.41;4994212;28;20070;-51
2021/11/17 10:56:25;;;;;;;64.25;31.27;;;;;;;7.87;100.00;102012.47;4994571;28;20051;-52
2021/11/17 10:58:56;;;;;;;61.10;31.67;;;;;;;7.86;100.00;102021.66;4994871;28;20493;-48
2021/11/17 11:01:45;;;;;;;69.40;35.03;;;;;;;7.86;100.00;102024.38;4995571;28;20049;-51
2021/11/17 11:04:35;;;;;;;64.53;32.60;;;;;;;7.87;100.00;102023.31;4994081;28;20038;-52
2021/11/17 11:07:18;;;;;;;59.63;32.30;;;;;;;7.88;100.00;102023.09;5005069;28;20042;-50
2021/11/17 11:09:55;;;;;;;61.78;31.70;;;;;;;7.90;100.00;102022.88;4994553;28;20579;-50
2021/11/17 11:12:26;;;;;;;61.33;32.15;;;;;;;7.90;100.00;102031.84;4995860;28;20043;-51
2021/11/17 11:15:02;;;;;;;53.50;29.52;;;;;;;7.92;100.00;102033.53;4992368;28;20070;-49
2021/11/17 11:17:46;;;;;;;57.00;29.63;;;;;;;7.94;100.00;102032.25;4994155;28;20081;-51
2021/11/17 11:20:18;;;;;;;55.28;30.70;;;;;;;7.97;100.00;102037.22;4993680;28;20031;-52
2021/11/17 11:22:58;;;;;;;54.38;30.25;;;;;;;8.00;100.00;102031.34;4994339;28;20042;-52
2021/11/17 11:25:59;;;;;;;51.33;27.50;;;;;;;8.08;100.00;102022.94;4993871;28;20038;-51
2021/11/17 11:28:48;;;;;;;52.90;28.95;;;;;;;8.10;100.00;102020.84;4993744;28;20050;-51
2021/11/17 11:31:26;;;;;;;47.10;26.80;;;;;;;8.16;100.00;102019.13;4994935;28;20077;-49
2021/11/17 11:33:57;;;;;;;49.35;26.95;;;;;;;8.21;100.00;102021.16;4993236;28;20493;-49
2021/11/17 11:36:43;;;;;;;48.78;26.73;;;;;;;8.24;100.00;102016.09;4311223;28;9999942;-48
2021/11/17 11:39:11;;;;;;;42.85;24.85;;;;;;;8.27;100.00;102017.53;4990877;28;20077;-48
2021/11/17 11:42:03;;;;;;;51.97;25.63;;;;;;;8.33;100.00;102022.94;4993051;28;20161;-51
2021/11/17 11:44:44;;;;;;;51.80;27.67;;;;;;;8.39;100.00;102029.34;4980980;28;20472;-51
2021/11/17 11:47:13;;;;;;;52.65;27.75;;;;;;;8.37;100.00;102036.91;4993397;28;20073;-47
2021/11/17 11:49:57;;;;;;;56.63;29.48;;;;;;;8.38;100.00;102026.88;4993761;28;20052;-51
2021/11/17 11:52:33;;;;;;;64.00;32.53;;;;;;;8.38;100.00;102027.69;4990623;28;20035;-51
2021/11/17 11:55:01;;;;;;;60.23;32.50;;;;;;;8.40;100.00;102025.63;4992387;28;20133;-53
2021/11/17 11:57:42;;;;;;;56.53;29.75;;;;;;;8.45;100.00;102023.06;4991080;28;20309;-49
2021/11/17 12:00:34;;;;;;;55.30;29.58;;;;;;;8.58;100.00;102027.50;5001774;28;20043;-51
2021/11/17 12:03:08;;;;;;;56.97;29.63;;;;;;;8.59;100.00;102023.75;4991363;28;20058;-48
2021/11/17 12:05:39;;;;;;;62.55;32.63;;;;;;;8.61;100.00;102020.78;4991108;28;20045;-53
2021/11/17 12:08:16;;;;;;;62.97;32.72;;;;;;;8.66;100.00;102021.81;4991319;28;20129;-50
2021/11/17 12:11:06;;;;;;;62.60;31.50;;;;;;;8.67;100.00;102020.72;5001079;28;20038;-51
2021/11/17 12:13:56;;;;;;;57.45;30.90;;;;;;;8.67;100.00;102030.78;4990547;28;20055;-50
2021/11/17 12:16:27;;;;;;;56.08;30.35;;;;;;;8.72;100.00;102033.63;4990765;28;20097;-51
2021/11/17 12:18:57;;;;;;;45.17;20.02;;;;;;;8.80;100.00;102027.91;4992342;28;20053;-51
2021/11/17 12:21:41;;;;;;;48.60;23.27;;;;;;;8.94;100.00;102032.13;4991202;28;20047;-52
2021/11/17 12:24:13;;;;;;;60.03;29.85;;;;;;;8.92;100.00;102036.97;4989730;28;20136;-51
2021/11/17 12:26:43;;;;;;;57.83;30.23;;;;;;;8.87;100.00;102035.97;4990740;28;20164;-51
2021/11/17 12:29:21;;;;;;;57.42;30.80;;;;;;;8.83;100.00;102032.06;4990773;28;20120;-53
2021/11/17 12:31:52;;;;;;;60.25;31.80;;;;;;;8.84;100.00;102045.41;4986019;28;20058;-51
2021/11/17 12:34:43;;;;;;;61.00;30.05;;;;;;;8.84;100.00;102045.41;4991744;28;20046;-48
2021/11/17 12:37:34;;;;;;;64.38;32.30;;;;;;;8.86;100.00;102043.31;4992264;28;20034;-48
2021/11/17 12:40:19;;;;;;;63.13;33.00;;;;;;;8.86;100.00;102026.19;4993638;28;20051;-49
2021/11/17 12:42:55;;;;;;;62.00;32.65;;;;;;;8.87;100.00;102034.09;5002736;28;20093;-51
2021/11/17 12:45:30;;;;;;;55.33;30.67;;;;;;;8.89;100.00;102034.69;4992204;28;20065;-49
2021/11/17 12:48:01;;;;;;;57.15;30.35;;;;;;;8.90;100.00;102030.94;4992835;28;20513;-52
2021/11/17 12:50:40;;;;;;;57.88;29.88;;;;;;;8.93;100.00;102035.09;4992632;28;20080;-56
2021/11/17 12:53:20;;;;;;;46.13;26.10;;;;;;;8.98;100.00;102035.22;4995955;28;20115;-53
2021/11/17 12:55:58;;;;;;;52.13;25.77;;;;;;;9.03;100.00;102031.84;4991031;28;20627;-54
2021/11/17 12:58:39;;;;;;;53.35;28.02;;;;;;;9.05;100.00;102033.25;4992307;28;20077;-53
2021/11/17 13:01:21;;;;;;;50.97;27.02;;;;;;;9.10;100.00;102035.31;4990589;28;20363;-53
2021/11/17 13:03:49;;;;;;;48.33;27.02;;;;;;;9.12;100.00;102041.34;4987472;28;20034;-51
2021/11/17 13:06:33;;;;;;;52.03;26.77;;;;;;;9.14;100.00;102044.66;4992187;28;20046;-56
2021/11/17 13:09:09;;;;;;;42.10;22.02;;;;;;;9.18;100.00;102037.69;4992558;28;20093;-53
2021/11/17 13:11:55;;;;;;;41.13;23.08;;;;;;;9.20;100.00;102046.47;4992091;28;20042;-55
2021/11/17 13:14:35;;;;;;;;;;;;;;;9.21;100.00;102045.38;4996673;28;20075;-51
2021/11/17 13:17:15;;;;;;;38.28;20.40;;;;;;;9.26;100.00;102047.41;4992632;28;19972;-50
2021/11/17 13:19:50;;;;;;;33.67;18.23;;;;;;;9.30;100.00;102046.75;4992359;28;20394;-56
2021/11/17 13:22:30;;;;;;;37.90;17.87;;;;;;;9.31;100.00;102047.59;4993312;28;20062;-55
2021/11/17 13:25:21;;;;;;;32.90;18.20;;;;;;;9.32;100.00;102044.63;4991337;28;20310;-58
2021/11/17 13:27:57;;;;;;;33.10;17.27;;;;;;;9.34;100.00;102049.84;4991562;28;20457;-52
2021/11/17 13:30:38;;;;;;;35.33;19.40;;;;;;;9.35;100.00;102041.44;4991843;28;20042;-53
2021/11/17 13:33:20;;;;;;;30.95;17.08;;;;;;;9.38;100.00;102038.28;4993368;28;20456;-55
2021/11/17 13:36:02;;;;;;;32.58;17.65;;;;;;;9.42;100.00;102051.41;4990492;28;20410;-48
2021/11/17 13:38:30;;;;;;;31.83;16.83;;;;;;;9.46;100.00;102058.06;4991733;28;20042;-56
2021/11/17 13:41:01;;;;;;;31.88;17.40;;;;;;;9.48;100.00;102058.66;4990925;28;20046;-55
2021/11/17 13:43:30;;;;;;;27.95;15.60;;;;;;;9.50;100.00;102057.38;4992970;28;20034;-52
2021/11/17 13:46:07;;;;;;;33.08;17.20;;;;;;;9.49;100.00;102061.13;4992023;28;20117;-56
2021/11/17 13:48:39;;;;;;;27.55;14.13;;;;;;;9.48;100.00;102064.09;4990833;28;20047;-50
2021/11/17 13:51:07;;;;;;;33.88;17.58;;;;;;;9.51;100.00;102074.53;4992176;28;20042;-52
2021/11/17 13:53:35;;;;;;;32.90;17.00;;;;;;;9.49;100.00;102076.63;4992473;28;20069;-55
2021/11/17 13:56:07;;;;;;;31.05;16.42;;;;;;;9.47;100.00;102081.47;4992560;28;20044;-54
2021/11/17 13:58:35;;;;;;;32.53;17.15;;;;;;;9.46;100.00;102087.97;4990239;28;20050;-54
2021/11/17 14:01:03;;;;;;;35.75;16.63;;;;;;;9.44;100.00;102087.38;4990674;28;20030;-47
2021/11/17 14:03:32;;;;;;;32.45;15.63;;;;;;;9.42;100.00;102092.22;4993346;28;20428;-49
2021/11/17 14:06:03;;;;;;;38.42;16.60;;;;;;;9.39;100.00;102083.44;4995657;28;20042;-52
2021/11/17 14:08:33;;;;;;;31.15;16.55;;;;;;;9.42;100.00;102086.78;4995825;28;20050;-51
2021/11/17 14:11:01;;;;;;;30.98;16.58;;;;;;;9.42;100.00;102082.16;4995553;28;20053;-56
2021/11/17 14:13:30;;;;;;;27.98;15.27;;;;;;;9.42;100.00;102081.34;5000032;28;20053;-55
2021/11/17 14:15:57;;;;;;;30.15;15.15;;;;;;;9.41;100.00;102074.25;5004187;28;20050;-55
2021/11/17 14:18:26;;;;;;;33.13;13.48;;;;;;;9.41;100.00;102075.06;4995731;28;20045;-55
2021/11/17 14:20:54;;;;;;;27.92;9.98;;;;;;;9.41;100.00;102085.94;4994373;28;20505;-53
2021/11/17 14:23:22;;;;;;;24.02;6.75;;;;;;;9.42;100.00;102081.34;4994224;28;20038;-56
2021/11/17 14:25:50;;;;;;;23.92;7.13;;;;;;;9.46;100.00;102082.53;5004458;28;20048;-52
2021/11/17 14:28:31;;;;;;;22.13;6.80;;;;;;;9.49;100.00;102085.63;4995312;28;20065;-49
2021/11/17 14:31:29;;;;;;;20.45;5.47;;;;;;;9.51;100.00;102094.38;4994235;28;20042;-53